Relevés horaires St-Hubert (Belgique)


Relevés horaires à St-Hubert - Lundi 13 Mai 2019
Heure UTC1 Température [°C] Vent [km/h] Hum. [%] Pres.4 [hPa] Visi. [Km] Nébu. [octa] Préc.5 [mm] Cond.
2m. Res. Ros. Dir.2 Vit. Moy. Raf.3
23:00 4.4 3.2 -2.0 NE 5.6 5.6 9.3 63 1036.3(-0.5/3h) 45 0/8 -- --
22:00 5.8 4.8 -2.8 NE 5.6 5.6 7.4 54 1036.2(0.0/3h) 45 0/8 -- --
21:00 4.7 3.5 -1.4 ENE 5.6 11.1 16.7 65 1036.5(0.1/3h) 45 0/8 -- --
20:00 7.0 7.0 -2.3 ENE 3.7 7.4 11.1 51 1036.1(0.2/3h) 50 0/8 -- --
19:00 9.1 8.1 -2.5 NE 7.4 11.1 16.7 44 1035.4(0.1/3h) 45 0/8 -- --
18:00 11.0 9.7 -3.3 NE 11.1 14.8 22.2 36 1035(-0.5/3h) 40 0/8 0/12h
--
17:00 11.9 10.7 -4.2 NNE 11.1 11.1 20.4 32 1034.7(-0.9/3h) 35 0/8 -- --
16:00 12.4 11.6 -5.9 NE 9.3 11.1 20.4 27 1034.7(-1.0/3h) 40 0/8 -- --
15:00 12.6 11.6 -8.8 NE 11.1 14.8 22.2 22 1035.2(-1.0/3h) 30 0/8 -- --
14:00 12.5 11.5 -9.0 NNE 11.1 14.8 22.2 21 1035.5(-1.0/3h) 45 0/8 -- --
13:00 12.0 10.6 -9.0 NE 13.0 13.0 22.2 22 1035.9(-1.0/3h) 40 0/8 -- --
12:00 11.4 10.4 -8.6 NE 9.3 13.0 20.4 24 1036.5(-0.6/3h) 40 0/8 0/6h
--
11:00 10.7 9.3 -7.4 NE 11.1 13.0 18.5 27 1037(-0.3/3h) 30 0/8 -- --
10:00 10.0 8.8 -4.1 NE 9.3 9.3 16.7 37 1037.4(0.1/3h) 30 0/8 -- --
09:00 8.4 6.9 -7.0 E 9.3 11.1 18.5 33 1038(0.4/3h) 40 0/8 -- --
08:00 6.7 4.8 -6.9 ENE 9.3 11.1 16.7 37 1038.3(0.6/3h) 40 0/8 -- --
07:00 4.4 3.2 -0.3 NE 5.6 7.4 13.0 71 1038.6(0.6/3h) 35 0/8 -- --
06:00 3.7 1.8 0.3 ENE 7.4 7.4 11.1 78 1038.6(0.4/3h) 29 0/8 0/12h
--
05:00 2.5 0.4 0.1 ENE 7.4 7.4 11.1 84 1038.7(0.3/3h) 30 0/8 -- --
04:00 1.5 -0.8 -0.3 ENE 7.4 7.4 11.1 88 1038.8(0.2/3h) 28 0/8 -- --
03:00 1.4 -0.9 -- ENE 7.4 7.4 11.1 -- 1038.7(0.0/3h) 35 0/8 -- --
02:00 2.3 0.8 0.5 NE 5.6 7.4 9.3 88 1038.4(0.0/3h) 40 0/8 -- --
01:00 3.2 1.8 0.6 NE 5.6 5.6 7.4 83 1038.1(0.1/3h) 45 0/8 -- --
00:00 3.8 2.5 0.6 NE 5.6 9.3 14.8 80 1038.1(0.5/3h) 45 0/8 0/6h
0/24h
--

1 Coordinated Universal Time. Actuellement il est 03:00 locale et 02:00 UTC.

2 Le vent souffle depuis la direction indiquée vers la direction oposée.

3 Les rafales max. sont disponible 40 min après l'heure du relevé.

4 Pour les stations d'altitude (plus de 600m) le géopotentiel du niveau le plus proche de la pression obligatoire est indiqué.

5 Les stations disposant d'un diffuseur peuvent indiquer "trace". Cela signifie que des précipitations ont touchés le sol mais que la quantité est inférieure à 0.1 mm.

Récapitulatif de la journée
Température [°C] Vent [km/h] Ensoleillement4 [h] Precipitations totale5 [mm] Pression [Hpa]
Min1 Max.2 Moy.3 Max. Min Max.
1.1 13.0 9.9 22.2 0 h 0 min 0 1034.7 1038.8

1 Température minimale relevée entre 18:00 UTC la veille et 18:00 UTC le jour donné.

2 Température maximale relevée entre 06:00 UTC le jour donné et 06:00 UTC le lendemain.

3 Vent moyen de la journée basé sur les relevés horaires.

4 Ensoleillement en heures relevé entre 06:00 UTC la veille et 06:00 UTC le jour donné.

5 Précipitations totales tombées entre 06:00 UTC la jour donné et 06:00 UTC le lendemain.

Graphiques horaires